Time;durP1;ratioP1;P1;durP2;ratioP2;P2;SDS_P1;SDS_P2;PMS_P1;PMS_P2;Temp;Humidity;BMP_temperature;BMP_pressure;BME280_temperature;BME280_humidity;BME280_pressure;Samples;Min_cycle;Max_cycle;Signal;HPM_P1;HPM_P2
2022/11/05 00:16:52;;;;;;;;;;;;;;;5.99;83.29883;101559.4;;;;-77
2022/11/05 00:26:52;;;;;;;;;;;;;;;5.9;83.15234;101571.2;;;;-77
2022/11/05 00:30:37;;;;;;;4.7;1.9;;;;;;;;;;;;;-76
2022/11/05 00:31:51;;;;;;;;;;;;;;;5.91;83.16504;101572.9;;;;-77
2022/11/05 00:36:51;;;;;;;;;;;;;;;5.86;83.14355;101578.4;;;;-77
2022/11/05 00:44:58;;;;;;;;;;;;;;;5.75;83.29883;101583.6;;;;-76
2022/11/05 00:49:28;;;;;;;;;;;;;;;5.79;83.34082;101575.9;;;;-76
2022/11/05 00:52:54;;;;;;;;;;;;;;;5.76;83.31152;101581.4;;;;-77
2022/11/05 00:56:52;;;;;;;;;;;;;;;5.74;83.00195;101589.7;;;;-77
2022/11/05 01:00:38;;;;;;;4.9;1.7;;;;;;;;;;;;;-76
2022/11/05 01:01:52;;;;;;;;;;;;;;;5.7;83.17969;101596.3;;;;-77
2022/11/05 01:06:51;;;;;;;;;;;;;;;5.73;83.11914;101597.5;;;;-77
2022/11/05 01:11:53;;;;;;;;;;;;;;;5.64;83.29785;101601.1;;;;-75
2022/11/05 01:16:51;;;;;;;;;;;;;;;5.61;83.09668;101599.8;;;;-77
2022/11/05 01:21:51;;;;;;;;;;;;;;;5.53;83.29883;101599;;;;-76
2022/11/05 01:26:51;;;;;;;;;;;;;;;5.5;83.20605;101599;;;;-76
2022/11/05 01:30:38;;;;;;;3.6;1.6;;;;;;;;;;;;;-77
2022/11/05 01:31:52;;;;;;;;;;;;;;;5.46;83.35059;101599.2;;;;-77
2022/11/05 01:36:51;;;;;;;;;;;;;;;5.43;83.2373;101599;;;;-76
2022/11/05 01:41:52;;;;;;;;;;;;;;;5.41;83.56055;101597.8;;;;-78
2022/11/05 01:46:51;;;;;;;;;;;;;;;5.43;83.4873;101602.2;;;;-76
2022/11/05 01:51:51;;;;;;;;;;;;;;;5.43;83.87109;101592.4;;;;-77
2022/11/05 01:56:54;;;;;;;;;;;;;;;5.46;83.74414;101591.9;;;;-77
2022/11/05 02:00:37;;;;;;;3.8;1.7;;;;;;;;;;;;;-77
2022/11/05 02:01:52;;;;;;;;;;;;;;;5.45;83.70898;101590.1;;;;-76
2022/11/05 02:06:52;;;;;;;;;;;;;;;5.46;83.6123;101598.6;;;;-76
2022/11/05 02:11:52;;;;;;;;;;;;;;;5.47;83.87793;101593.1;;;;-76
2022/11/05 02:16:55;;;;;;;;;;;;;;;5.49;83.71777;101581.8;;;;-77
2022/11/05 02:22:06;;;;;;;;;;;;;;;5.47;83.46191;101581.5;;;;-77
2022/11/05 02:27:04;;;;;;;;;;;;;;;5.48;83.55078;101581.8;;;;-76
2022/11/05 02:30:42;;;;;;;3.9;1.7;;;;;;;;;;;;;-76
2022/11/05 02:31:56;;;;;;;;;;;;;;;5.5;83.38086;101577.9;;;;-76
2022/11/05 02:36:55;;;;;;;;;;;;;;;5.54;83.24609;101580.4;;;;-78
2022/11/05 02:41:59;;;;;;;;;;;;;;;5.6;83.75;101581.2;;;;-77
2022/11/05 02:46:57;;;;;;;;;;;;;;;5.63;83.45996;101570.7;;;;-75
2022/11/05 02:51:54;;;;;;;;;;;;;;;5.61;83.44629;101576;;;;-76
2022/11/05 02:56:54;;;;;;;;;;;;;;;5.6;83.46582;101577;;;;-76
2022/11/05 03:00:55;;;;;;;3.5;1.3;;;;;;;;;;;;;-77
2022/11/05 03:01:52;;;;;;;;;;;;;;;5.58;83.5166;101580;;;;-76
2022/11/05 03:07:08;;;;;;;;;;;;;;;5.7;83.57227;101582.8;;;;-77
2022/11/05 03:11:57;;;;;;;;;;;;;;;5.66;83.78223;101580.1;;;;-76
2022/11/05 03:16:55;;;;;;;;;;;;;;;5.66;83.64258;101578.2;;;;-77
2022/11/05 03:21:54;;;;;;;;;;;;;;;5.67;83.83008;101580.3;;;;-77
2022/11/05 03:26:55;;;;;;;;;;;;;;;5.65;83.76953;101577.6;;;;-78
2022/11/05 03:30:39;;;;;;;5.1;1.5;;;;;;;;;;;;;-77
2022/11/05 03:31:54;;;;;;;;;;;;;;;5.68;83.68945;101586.1;;;;-77
2022/11/05 03:36:55;;;;;;;;;;;;;;;5.72;83.60938;101586.8;;;;-77
2022/11/05 03:41:53;;;;;;;;;;;;;;;5.76;83.8584;101580.3;;;;-77
2022/11/05 03:46:53;;;;;;;;;;;;;;;5.86;84.0293;101575.8;;;;-77
2022/11/05 03:51:54;;;;;;;;;;;;;;;5.91;84.23438;101572;;;;-77
2022/11/05 03:56:57;;;;;;;;;;;;;;;5.94;84.58008;101572.3;;;;-76
2022/11/05 04:00:38;;;;;;;4.6;1.3;;;;;;;;;;;;;-76
2022/11/05 04:01:52;;;;;;;;;;;;;;;5.92;84.15039;101573.4;;;;-76
2022/11/05 04:17:09;;;;;;;;;;;;;;;5.93;84.17383;101580.7;;;;-76
2022/11/05 04:26:51;;;;;;;;;;;;;;;5.87;84.37109;101593.8;;;;-72
2022/11/05 04:30:38;;;;;;;4.3;1.3;;;;;;;;;;;;;-71
2022/11/05 04:31:51;;;;;;;;;;;;;;;5.86;84.12695;101590.5;;;;-76
2022/11/05 04:36:52;;;;;;;;;;;;;;;5.83;84.32813;101596.4;;;;-76
2022/11/05 04:41:51;;;;;;;;;;;;;;;5.78;84.06738;101595.4;;;;-76
2022/11/05 04:46:51;;;;;;;;;;;;;;;5.78;84.56152;101601.8;;;;-77
2022/11/05 04:51:51;;;;;;;;;;;;;;;5.76;84.75293;101607.3;;;;-77
2022/11/05 04:56:51;;;;;;;;;;;;;;;5.72;84.29785;101603.9;;;;-77
2022/11/05 05:00:37;;;;;;;2.7;1.1;;;;;;;;;;;;;-76
2022/11/05 05:01:53;;;;;;;;;;;;;;;5.72;84.53809;101605.9;;;;-77
2022/11/05 05:06:51;;;;;;;;;;;;;;;5.7;84.66504;101604.4;;;;-76
2022/11/05 05:11:54;;;;;;;;;;;;;;;5.7;84.90527;101609.5;;;;-78
2022/11/05 05:16:53;;;;;;;;;;;;;;;5.73;85.53418;101605.2;;;;-77
2022/11/05 05:21:51;;;;;;;;;;;;;;;5.77;85.24805;101609.3;;;;-77
2022/11/05 05:26:53;;;;;;;;;;;;;;;5.77;85.2041;101611.2;;;;-76
2022/11/05 05:30:37;;;;;;;2.4;1.1;;;;;;;;;;;;;-76
2022/11/05 05:31:51;;;;;;;;;;;;;;;5.83;85.06055;101609.7;;;;-77
2022/11/05 05:36:51;;;;;;;;;;;;;;;5.83;84.71191;101613.5;;;;-77
2022/11/05 05:41:51;;;;;;;;;;;;;;;5.84;84.61523;101604.9;;;;-75
2022/11/05 05:46:54;;;;;;;;;;;;;;;5.81;84.62109;101613.6;;;;-77
2022/11/05 05:51:53;;;;;;;;;;;;;;;5.79;85.05664;101618.6;;;;-76
2022/11/05 05:56:54;;;;;;;;;;;;;;;5.81;85.10156;101621.4;;;;-77
2022/11/05 06:00:38;;;;;;;2.3;1;;;;;;;;;;;;;-77
2022/11/05 06:01:52;;;;;;;;;;;;;;;5.79;84.94727;101628;;;;-76
2022/11/05 06:06:54;;;;;;;;;;;;;;;5.73;85.19531;101626.5;;;;-76
2022/11/05 06:11:51;;;;;;;;;;;;;;;5.76;84.95117;101628.5;;;;-76
2022/11/05 06:16:51;;;;;;;;;;;;;;;5.76;84.875;101636;;;;-76
2022/11/05 06:21:51;;;;;;;;;;;;;;;5.81;84.90527;101632.5;;;;-77
2022/11/05 06:26:53;;;;;;;;;;;;;;;5.73;85.27148;101634.5;;;;-76
2022/11/05 06:30:38;;;;;;;4.8;1.4;;;;;;;;;;;;;-77
2022/11/05 06:31:51;;;;;;;;;;;;;;;5.73;85.38965;101642.6;;;;-76
2022/11/05 06:36:51;;;;;;;;;;;;;;;5.79;85.4502;101645.8;;;;-76
2022/11/05 06:41:51;;;;;;;;;;;;;;;5.8;85.37305;101645.9;;;;-77
2022/11/05 06:46:51;;;;;;;;;;;;;;;5.8;85.43848;101648.6;;;;-76
2022/11/05 06:51:54;;;;;;;;;;;;;;;5.84;85.09668;101647.1;;;;-77
2022/11/05 06:56:53;;;;;;;;;;;;;;;5.91;84.96875;101650;;;;-77
2022/11/05 07:00:37;;;;;;;2.6;1.3;;;;;;;;;;;;;-77
2022/11/05 07:01:51;;;;;;;;;;;;;;;5.95;85.47852;101653.1;;;;-76
2022/11/05 07:06:53;;;;;;;;;;;;;;;5.99;85.67188;101655.6;;;;-77
2022/11/05 07:11:51;;;;;;;;;;;;;;;6.05;86.01172;101652.5;;;;-76
2022/11/05 07:16:51;;;;;;;;;;;;;;;6.01;85.72266;101653.1;;;;-77
2022/11/05 07:21:54;;;;;;;;;;;;;;;6.06;86.0791;101653.3;;;;-76
2022/11/05 07:26:51;;;;;;;;;;;;;;;6.04;85.8916;101647.7;;;;-76
2022/11/05 07:30:38;;;;;;;4.2;1.5;;;;;;;;;;;;;-76
2022/11/05 07:31:51;;;;;;;;;;;;;;;6.07;85.82031;101649.6;;;;-76
2022/11/05 07:36:53;;;;;;;;;;;;;;;6.11;86.11426;101656.8;;;;-75
2022/11/05 07:41:51;;;;;;;;;;;;;;;6.19;85.87695;101659.6;;;;-76
2022/11/05 07:46:51;;;;;;;;;;;;;;;6.29;86.14844;101676.3;;;;-77
2022/11/05 07:51:52;;;;;;;;;;;;;;;6.59;87.2041;101676.8;;;;-76
2022/11/05 07:56:53;;;;;;;;;;;;;;;6.96;88.97559;101677.4;;;;-76
2022/11/05 08:00:38;;;;;;;4.7;2.2;;;;;;;;;;;;;-77
2022/11/05 08:01:51;;;;;;;;;;;;;;;7.13;87.87207;101682;;;;-76
2022/11/05 08:06:54;;;;;;;;;;;;;;;7.25;87.13867;101678.1;;;;-76
2022/11/05 08:11:53;;;;;;;;;;;;;;;7.32;87.88672;101675;;;;-75
2022/11/05 08:16:51;;;;;;;;;;;;;;;7.33;87.33008;101670.7;;;;-76
2022/11/05 08:21:51;;;;;;;;;;;;;;;7.45;87.87988;101667.7;;;;-75
2022/11/05 08:26:51;;;;;;;;;;;;;;;7.51;87.11426;101661.9;;;;-76
2022/11/05 08:30:38;;;;;;;4.5;2.1;;;;;;;;;;;;;-75
2022/11/05 08:31:51;;;;;;;;;;;;;;;7.5;87.23145;101666.1;;;;-76
2022/11/05 08:36:52;;;;;;;;;;;;;;;7.53;87.32422;101667.2;;;;-76
2022/11/05 08:41:51;;;;;;;;;;;;;;;7.56;86.89355;101687.8;;;;-77
2022/11/05 08:46:51;;;;;;;;;;;;;;;7.68;87.73047;101694;;;;-72
2022/11/05 08:51:52;;;;;;;;;;;;;;;7.82;87.8877;101694.7;;;;-72
2022/11/05 08:56:51;;;;;;;;;;;;;;;7.94;86.80469;101697.4;;;;-72
2022/11/05 09:00:39;;;;;;;4.6;2.2;;;;;;;;;;;;;-73
2022/11/05 09:01:52;;;;;;;;;;;;;;;8.04;87.25293;101699.4;;;;-72
2022/11/05 09:06:51;;;;;;;;;;;;;;;8.11;87.38867;101697.6;;;;-72
2022/11/05 09:11:51;;;;;;;;;;;;;;;8.15;87.04395;101693.6;;;;-77
2022/11/05 09:16:51;;;;;;;;;;;;;;;8.18;86.55762;101687;;;;-79
2022/11/05 09:22:26;;;;;;;;;;;;;;;8.31;86.5166;101689.6;;;;-76
2022/11/05 09:26:06;;;;;;;;;;;;;;;8.27;86.78223;101686.9;;;;-77
2022/11/05 09:30:42;;;;;;;5.3;2.1;;;;;;;;;;;;;-78
2022/11/05 09:31:08;;;;;;;;;;;;;;;8.33;86.1582;101689;;;;-77
2022/11/05 09:36:07;;;;;;;;;;;;;;;8.44;86.66309;101684.2;;;;-76
2022/11/05 09:41:08;;;;;;;;;;;;;;;8.52;85.12891;101685.5;;;;-77
2022/11/05 09:46:10;;;;;;;;;;;;;;;8.64;85.19629;101681.2;;;;-76
2022/11/05 09:51:07;;;;;;;;;;;;;;;8.72;85.50977;101682.1;;;;-76
2022/11/05 09:56:07;;;;;;;;;;;;;;;8.81;84.10742;101684.1;;;;-78
2022/11/05 10:00:39;;;;;;;5.6;2.9;;;;;;;;;;;;;-76
2022/11/05 10:01:07;;;;;;;;;;;;;;;9.1;86.07813;101672.9;;;;-77
2022/11/05 10:06:10;;;;;;;;;;;;;;;9.41;86.27148;101679.7;;;;-77
2022/11/05 10:11:11;;;;;;;;;;;;;;;9.58;85.91016;101673.4;;;;-76
2022/11/05 10:16:09;;;;;;;;;;;;;;;9.71;85.97754;101671.6;;;;-76
2022/11/05 10:21:07;;;;;;;;;;;;;;;9.78;86.44434;101675.9;;;;-71
2022/11/05 10:26:08;;;;;;;;;;;;;;;9.83;85.58203;101680.6;;;;-72
2022/11/05 10:30:40;;;;;;;4.4;2.4;;;;;;;;;;;;;-71
2022/11/05 10:31:08;;;;;;;;;;;;;;;9.9;85.64063;101678.2;;;;-72
2022/11/05 10:36:08;;;;;;;;;;;;;;;9.94;85.46191;101677.7;;;;-76
2022/11/05 10:41:12;;;;;;;;;;;;;;;9.99;85.39551;101683.7;;;;-72
2022/11/05 10:46:15;;;;;;;;;;;;;;;10.04;85.15039;101686;;;;-72
2022/11/05 10:51:07;;;;;;;;;;;;;;;10.01;84.80078;101689.4;;;;-71
2022/11/05 10:56:07;;;;;;;;;;;;;;;9.99;84.94141;101693.2;;;;-72
2022/11/05 11:00:40;;;;;;;9.1;2.6;;;;;;;;;;;;;-71
2022/11/05 11:01:09;;;;;;;;;;;;;;;9.94;85.10645;101696.5;;;;-70
2022/11/05 11:06:18;;;;;;;;;;;;;;;9.93;85.32715;101694.3;;;;-74
2022/11/05 11:11:07;;;;;;;;;;;;;;;9.97;85.2998;101697.8;;;;-75
2022/11/05 11:16:16;;;;;;;;;;;;;;;10.01;85.17773;101698.4;;;;-71
2022/11/05 11:21:16;;;;;;;;;;;;;;;10.16;84.94141;101695.5;;;;-75
2022/11/05 11:26:07;;;;;;;;;;;;;;;10.27;85.23828;101699;;;;-75
2022/11/05 11:30:41;;;;;;;8.1;2.7;;;;;;;;;;;;;-71
2022/11/05 11:31:10;;;;;;;;;;;;;;;10.35;85.39941;101691.2;;;;-70
2022/11/05 11:36:07;;;;;;;;;;;;;;;10.41;85.15527;101685.2;;;;-71
2022/11/05 11:41:11;;;;;;;;;;;;;;;10.42;84.59473;101683.8;;;;-70
2022/11/05 11:46:07;;;;;;;;;;;;;;;10.35;84.55664;101685.8;;;;-70
2022/11/05 11:51:16;;;;;;;;;;;;;;;10.27;84.46582;101682.7;;;;-74
2022/11/05 11:56:21;;;;;;;;;;;;;;;10.25;84.62793;101686.2;;;;-75
2022/11/05 12:00:45;;;;;;;5.5;2.4;;;;;;;;;;;;;-75
2022/11/05 12:01:12;;;;;;;;;;;;;;;10.25;84.56152;101678.1;;;;-75
2022/11/05 12:06:10;;;;;;;;;;;;;;;10.31;84.60547;101675.8;;;;-70
2022/11/05 12:11:11;;;;;;;;;;;;;;;10.34;84.35645;101672.3;;;;-72
2022/11/05 12:16:09;;;;;;;;;;;;;;;10.3;84.53906;101666.4;;;;-71
2022/11/05 12:21:17;;;;;;;;;;;;;;;10.3;84.65918;101659.6;;;;-75
2022/11/05 12:26:10;;;;;;;;;;;;;;;10.35;84.48145;101664.7;;;;-75
2022/11/05 12:30:48;;;;;;;5;2.3;;;;;;;;;;;;;-75
2022/11/05 12:31:14;;;;;;;;;;;;;;;10.37;84.28613;101662.1;;;;-75
2022/11/05 12:36:11;;;;;;;;;;;;;;;10.42;83.93066;101657.5;;;;-75
2022/11/05 12:41:10;;;;;;;;;;;;;;;10.5;83.50391;101645.1;;;;-75
2022/11/05 12:46:13;;;;;;;;;;;;;;;10.55;83.19434;101646.3;;;;-75
2022/11/05 12:51:10;;;;;;;;;;;;;;;10.57;82.96484;101641.1;;;;-77
2022/11/05 12:56:10;;;;;;;;;;;;;;;10.59;82.76953;101632.2;;;;-76
2022/11/05 13:00:46;;;;;;;4.9;1.8;;;;;;;;;;;;;-75
2022/11/05 13:01:09;;;;;;;;;;;;;;;10.62;82.83203;101620.9;;;;-75
2022/11/05 13:06:09;;;;;;;;;;;;;;;10.68;82.46582;101620.5;;;;-77
2022/11/05 13:11:13;;;;;;;;;;;;;;;10.7;82.18164;101618.5;;;;-75
2022/11/05 13:16:09;;;;;;;;;;;;;;;10.7;82.18164;101613.1;;;;-75
2022/11/05 13:21:08;;;;;;;;;;;;;;;10.67;82.36523;101617.1;;;;-76
2022/11/05 13:26:10;;;;;;;;;;;;;;;10.73;82.13379;101614;;;;-76
2022/11/05 13:30:46;;;;;;;4.1;1.6;;;;;;;;;;;;;-76
2022/11/05 13:31:08;;;;;;;;;;;;;;;10.76;81.88281;101614.1;;;;-75
2022/11/05 13:41:14;;;;;;;;;;;;;;;10.78;81.66602;101607.5;;;;-75
2022/11/05 13:46:21;;;;;;;;;;;;;;;10.76;81.68457;101609.5;;;;-76
2022/11/05 13:51:10;;;;;;;;;;;;;;;10.78;81.5332;101617;;;;-76
2022/11/05 13:56:15;;;;;;;;;;;;;;;10.79;81.5127;101612.9;;;;-77
2022/11/05 14:00:49;;;;;;;5.1;1.5;;;;;;;;;;;;;-77
2022/11/05 14:01:12;;;;;;;;;;;;;;;10.78;81.55566;101608.1;;;;-78
2022/11/05 14:06:08;;;;;;;;;;;;;;;10.77;81.33301;101597.6;;;;-75
2022/11/05 14:11:10;;;;;;;;;;;;;;;10.74;81.47168;101595.4;;;;-74
2022/11/05 14:16:10;;;;;;;;;;;;;;;10.72;81.57715;101582.7;;;;-75
2022/11/05 14:21:07;;;;;;;;;;;;;;;10.69;81.27344;101581.7;;;;-73
2022/11/05 14:26:18;;;;;;;;;;;;;;;10.68;81.37109;101593;;;;-75
2022/11/05 14:30:48;;;;;;;6.3;1.9;;;;;;;;;;;;;-74
2022/11/05 14:31:07;;;;;;;;;;;;;;;10.65;81.46582;101599;;;;-75
2022/11/05 14:36:33;;;;;;;;;;;;;;;10.62;81.61328;101599;;;;-74
2022/11/05 14:41:08;;;;;;;;;;;;;;;10.6;81.66504;101597.5;;;;-74
2022/11/05 14:46:07;;;;;;;;;;;;;;;10.55;81.8877;101596.5;;;;-74
2022/11/05 14:51:16;;;;;;;;;;;;;;;10.56;81.84668;101597.2;;;;-74
2022/11/05 14:56:08;;;;;;;;;;;;;;;10.55;81.85645;101588.7;;;;-75
2022/11/05 15:00:49;;;;;;;6.4;2.2;;;;;;;;;;;;;-75
2022/11/05 15:01:06;;;;;;;;;;;;;;;10.55;81.77734;101591.7;;;;-77
2022/11/05 15:06:23;;;;;;;;;;;;;;;10.5;81.80371;101594.9;;;;-75
2022/11/05 15:11:12;;;;;;;;;;;;;;;10.47;82.04883;101598.2;;;;-74
2022/11/05 15:16:06;;;;;;;;;;;;;;;10.43;82.44141;101590.8;;;;-75
2022/11/05 15:21:07;;;;;;;;;;;;;;;10.38;82.6416;101593.1;;;;-75
2022/11/05 15:26:11;;;;;;;;;;;;;;;10.34;82.82129;101589.7;;;;-75
2022/11/05 15:31:01;;;;;;;6.4;2.5;;;;;;;;;;;;;-75
2022/11/05 15:31:23;;;;;;;;;;;;;;;10.3;82.82715;101580.3;;;;-75
2022/11/05 15:36:23;;;;;;;;;;;;;;;10.27;83.01855;101574.9;;;;-74
2022/11/05 15:41:08;;;;;;;;;;;;;;;10.23;82.87891;101573.2;;;;-75
2022/11/05 15:46:08;;;;;;;;;;;;;;;10.19;82.89453;101579.6;;;;-75
2022/11/05 15:51:06;;;;;;;;;;;;;;;10.16;83.16406;101575.4;;;;-74
2022/11/05 15:56:09;;;;;;;;;;;;;;;10.12;83.05762;101578.1;;;;-75
2022/11/05 16:00:52;;;;;;;9.6;2.7;;;;;;;;;;;;;-75
2022/11/05 16:01:07;;;;;;;;;;;;;;;10.09;83.25879;101575.7;;;;-74
2022/11/05 16:06:11;;;;;;;;;;;;;;;10.05;83.375;101574.5;;;;-75
2022/11/05 16:11:09;;;;;;;;;;;;;;;10;83.67578;101567.1;;;;-75
2022/11/05 16:16:07;;;;;;;;;;;;;;;9.96;83.96484;101567.7;;;;-75
2022/11/05 16:21:10;;;;;;;;;;;;;;;9.92;84.15625;101565;;;;-76
2022/11/05 16:26:06;;;;;;;;;;;;;;;9.89;84.33691;101558.1;;;;-75
2022/11/05 16:31:00;;;;;;;7.8;2.9;;;;;;;;;;;;;-75
2022/11/05 16:31:10;;;;;;;;;;;;;;;9.88;84.39063;101562.6;;;;-74
2022/11/05 16:36:07;;;;;;;;;;;;;;;9.84;84.64648;101563.9;;;;-76
2022/11/05 16:41:06;;;;;;;;;;;;;;;9.81;84.80664;101558.1;;;;-76
2022/11/05 16:46:08;;;;;;;;;;;;;;;9.78;85.08984;101553.2;;;;-75
2022/11/05 16:51:06;;;;;;;;;;;;;;;9.76;85.22754;101550.7;;;;-74
2022/11/05 16:56:07;;;;;;;;;;;;;;;9.75;85.07129;101554;;;;-75
2022/11/05 17:00:52;;;;;;;8;3.3;;;;;;;;;;;;;-76
2022/11/05 17:01:08;;;;;;;;;;;;;;;9.74;85.2998;101554.3;;;;-75
2022/11/05 17:06:07;;;;;;;;;;;;;;;9.73;85.32129;101546.8;;;;-75
2022/11/05 17:11:06;;;;;;;;;;;;;;;9.73;85.54004;101554.3;;;;-76
2022/11/05 17:16:06;;;;;;;;;;;;;;;9.71;85.4707;101552.9;;;;-78
2022/11/05 17:21:09;;;;;;;;;;;;;;;9.69;85.21387;101554.8;;;;-75
2022/11/05 17:26:07;;;;;;;;;;;;;;;9.69;85.98535;101562.9;;;;-75
2022/11/05 17:30:53;;;;;;;8.7;4.1;;;;;;;;;;;;;-76
2022/11/05 17:31:07;;;;;;;;;;;;;;;9.68;86.34668;101563.9;;;;-74
2022/11/05 17:36:08;;;;;;;;;;;;;;;9.67;86.24609;101560.5;;;;-72
2022/11/05 17:41:12;;;;;;;;;;;;;;;9.66;86.47559;101551.7;;;;-71
2022/11/05 17:46:09;;;;;;;;;;;;;;;9.66;86.55273;101550.6;;;;-72
2022/11/05 17:51:07;;;;;;;;;;;;;;;9.64;86.65918;101542.1;;;;-71
2022/11/05 17:56:10;;;;;;;;;;;;;;;9.64;86.69238;101547.4;;;;-76
2022/11/05 18:00:54;;;;;;;10.1;4.2;;;;;;;;;;;;;-76
2022/11/05 18:01:06;;;;;;;;;;;;;;;9.63;86.78809;101549.6;;;;-74
2022/11/05 18:06:09;;;;;;;;;;;;;;;9.63;87.15332;101547.1;;;;-75
2022/11/05 18:11:06;;;;;;;;;;;;;;;9.63;87.37207;101548.1;;;;-75
2022/11/05 18:16:06;;;;;;;;;;;;;;;9.62;87.42676;101536.5;;;;-75
2022/11/05 18:21:06;;;;;;;;;;;;;;;9.61;87.78711;101530.1;;;;-77
2022/11/05 18:26:10;;;;;;;;;;;;;;;9.6;88.10645;101529.3;;;;-75
2022/11/05 18:30:55;;;;;;;11.7;4.8;;;;;;;;;;;;;-76
2022/11/05 18:31:06;;;;;;;;;;;;;;;9.59;87.88281;101512.8;;;;-76
2022/11/05 18:36:06;;;;;;;;;;;;;;;9.58;87.9043;101517.7;;;;-75
2022/11/05 18:41:11;;;;;;;;;;;;;;;9.58;88.0918;101508.6;;;;-76
2022/11/05 18:46:06;;;;;;;;;;;;;;;9.58;87.81641;101498.5;;;;-77
2022/11/05 18:51:09;;;;;;;;;;;;;;;9.58;88.06738;101491.8;;;;-75
2022/11/05 18:56:09;;;;;;;;;;;;;;;9.57;87.91211;101480.7;;;;-75
2022/11/05 19:00:55;;;;;;;9.7;5.1;;;;;;;;;;;;;-75
2022/11/05 19:01:07;;;;;;;;;;;;;;;9.58;88.19043;101486.3;;;;-74
2022/11/05 19:06:08;;;;;;;;;;;;;;;9.59;88.07129;101476.1;;;;-76
2022/11/05 19:11:10;;;;;;;;;;;;;;;9.6;88.03809;101482.9;;;;-75
2022/11/05 19:16:08;;;;;;;;;;;;;;;9.61;87.9082;101470.5;;;;-75
2022/11/05 19:21:09;;;;;;;;;;;;;;;9.61;87.85352;101466.5;;;;-75
2022/11/05 19:26:06;;;;;;;;;;;;;;;9.61;87.79785;101465;;;;-71
2022/11/05 19:30:59;;;;;;;12.5;4.8;;;;;;;;;;;;;-75
2022/11/05 19:31:09;;;;;;;;;;;;;;;9.61;87.64355;101463.2;;;;-74
2022/11/05 19:36:06;;;;;;;;;;;;;;;9.62;87.56836;101452.2;;;;-75
2022/11/05 19:41:10;;;;;;;;;;;;;;;9.64;87.51855;101455.8;;;;-76
2022/11/05 19:46:06;;;;;;;;;;;;;;;9.66;87.40137;101444.4;;;;-76
2022/11/05 19:51:07;;;;;;;;;;;;;;;9.66;87.32422;101435.3;;;;-75
2022/11/05 19:56:06;;;;;;;;;;;;;;;9.66;87.13672;101430.4;;;;-74
2022/11/05 20:00:57;;;;;;;11.6;4.4;;;;;;;;;;;;;-75
2022/11/05 20:01:07;;;;;;;;;;;;;;;9.67;87.11816;101423.7;;;;-73
2022/11/05 20:06:10;;;;;;;;;;;;;;;9.68;86.97656;101430.6;;;;-76
2022/11/05 20:11:07;;;;;;;;;;;;;;;9.69;86.92188;101424.2;;;;-76
2022/11/05 20:16:06;;;;;;;;;;;;;;;9.69;86.84473;101420;;;;-75
2022/11/05 20:21:11;;;;;;;;;;;;;;;9.7;86.78223;101418.5;;;;-76
2022/11/05 20:26:09;;;;;;;;;;;;;;;9.7;86.74902;101424.9;;;;-75
2022/11/05 20:30:59;;;;;;;8.9;4;;;;;;;;;;;;;-75
2022/11/05 20:31:15;;;;;;;;;;;;;;;9.69;86.64648;101412.9;;;;-77
2022/11/05 20:36:08;;;;;;;;;;;;;;;9.68;86.63379;101415.9;;;;-76
2022/11/05 20:41:08;;;;;;;;;;;;;;;9.68;86.50293;101420.7;;;;-76
2022/11/05 20:46:07;;;;;;;;;;;;;;;9.66;86.36523;101417.9;;;;-77
2022/11/05 20:51:07;;;;;;;;;;;;;;;9.66;86.47559;101413.5;;;;-74
2022/11/05 20:56:07;;;;;;;;;;;;;;;9.66;86.39844;101420;;;;-76
2022/11/05 21:00:59;;;;;;;8.4;3.5;;;;;;;;;;;;;-75
2022/11/05 21:01:08;;;;;;;;;;;;;;;9.66;86.4209;101420.3;;;;-75
2022/11/05 21:06:06;;;;;;;;;;;;;;;9.67;86.4668;101416.7;;;;-76
2022/11/05 21:11:06;;;;;;;;;;;;;;;9.68;86.52344;101417.9;;;;-76
2022/11/05 21:16:08;;;;;;;;;;;;;;;9.67;86.46875;101406.5;;;;-76
2022/11/05 21:21:07;;;;;;;;;;;;;;;9.7;86.44043;101414.6;;;;-76
2022/11/05 21:26:10;;;;;;;;;;;;;;;9.69;86.42578;101402.7;;;;-75
2022/11/05 21:31:02;;;;;;;9.1;3.2;;;;;;;;;;;;;-75
2022/11/05 21:31:12;;;;;;;;;;;;;;;9.69;86.43652;101402.2;;;;-75
2022/11/05 21:36:07;;;;;;;;;;;;;;;9.69;86.45898;101401.2;;;;-75
2022/11/05 21:41:07;;;;;;;;;;;;;;;9.7;86.59277;101395.9;;;;-75
2022/11/05 21:46:07;;;;;;;;;;;;;;;9.69;86.52539;101393.6;;;;-75
2022/11/05 22:01:00;;;;;;;8.8;3.2;;;;;;;;;;;;;-75
2022/11/05 22:01:10;;;;;;;;;;;;;;;9.61;86.69629;101385.7;;;;-74
2022/11/05 22:06:06;;;;;;;;;;;;;;;9.6;86.83984;101383;;;;-75
2022/11/05 22:11:06;;;;;;;;;;;;;;;9.62;87.11719;101389.1;;;;-75
2022/11/05 22:16:06;;;;;;;;;;;;;;;9.61;87.12598;101392.9;;;;-76
2022/11/05 22:21:06;;;;;;;;;;;;;;;9.62;87.05078;101382.6;;;;-76
2022/11/05 22:26:06;;;;;;;;;;;;;;;9.62;87.38281;101383.5;;;;-70
2022/11/05 22:31:01;;;;;;;12.6;3.4;;;;;;;;;;;;;-71
2022/11/05 22:31:13;;;;;;;;;;;;;;;9.62;87.30566;101373.4;;;;-73
2022/11/05 22:36:06;;;;;;;;;;;;;;;9.64;87.35352;101366.6;;;;-70
2022/11/05 22:41:09;;;;;;;;;;;;;;;9.65;87.35547;101357.5;;;;-70
2022/11/05 22:46:10;;;;;;;;;;;;;;;9.68;87.4707;101336.9;;;;-75
2022/11/05 22:51:09;;;;;;;;;;;;;;;9.68;87.71387;101336.4;;;;-76
2022/11/05 22:56:09;;;;;;;;;;;;;;;9.67;87.74414;101337.4;;;;-76
2022/11/05 23:01:02;;;;;;;7.8;3;;;;;;;;;;;;;-75
2022/11/05 23:01:14;;;;;;;;;;;;;;;9.67;87.68066;101333.9;;;;-73
2022/11/05 23:11:34;;;;;;;;;;;;;;;9.68;87.79199;101336;;;;-75
2022/11/05 23:26:48;;;;;;;;;;;;;;;9.73;87.7998;101332.2;;;;-75
2022/11/05 23:51:07;;;;;;;;;;;;;;;9.72;88.57129;101318.5;;;;-76
2022/11/05 23:56:09;;;;;;;;;;;;;;;9.72;88.64844;101314.9;;;;-75
